createdAt,value
2022-10-11T00:01:58.106Z,4.07
2022-10-11T00:04:24.474Z,3.90
2022-10-11T00:06:50.791Z,4.05
2022-10-11T00:09:17.132Z,3.80
2022-10-11T00:11:43.682Z,4.45
2022-10-11T00:14:10.181Z,4.30
2022-10-11T00:16:38.729Z,3.63
2022-10-11T00:19:05.294Z,4.30
2022-10-11T00:21:31.751Z,3.95
2022-10-11T00:23:58.114Z,4.10
2022-10-11T00:26:24.492Z,4.43
2022-10-11T00:28:52.038Z,4.43
2022-10-11T00:31:18.617Z,4.88
2022-10-11T00:33:45.276Z,5.22
2022-10-11T00:36:14.614Z,4.43
2022-10-11T00:38:41.369Z,5.18
2022-10-11T00:41:07.748Z,5.43
2022-10-11T00:43:34.420Z,4.32
2022-10-11T00:46:04.409Z,4.65
2022-10-11T00:48:42.040Z,4.70
2022-10-11T00:51:23.272Z,5.05
2022-10-11T00:53:50.850Z,4.85
2022-10-11T00:56:20.672Z,4.85
2022-10-11T00:58:47.184Z,5.38
2022-10-11T01:01:13.919Z,5.05
2022-10-11T01:03:40.524Z,5.38
2022-10-11T01:06:07.285Z,5.72
2022-10-11T01:08:34.107Z,5.00
2022-10-11T01:11:00.511Z,4.85
2022-10-11T01:13:32.698Z,4.95
2022-10-11T01:16:02.585Z,5.32
2022-10-11T01:18:34.179Z,5.28
2022-10-11T01:21:09.412Z,4.70
2022-10-11T01:23:38.758Z,5.03
2022-10-11T01:26:05.877Z,5.07
2022-10-11T01:28:32.542Z,5.57
2022-10-11T01:31:04.283Z,5.32
2022-10-11T01:33:35.754Z,5.63
2022-10-11T01:36:02.626Z,5.82
2022-10-11T01:38:35.258Z,6.20
2022-10-11T01:41:15.535Z,6.53
2022-10-11T01:43:42.321Z,7.25
2022-10-11T01:46:09.330Z,7.85
2022-10-11T01:48:47.133Z,7.30
2022-10-11T01:51:13.657Z,7.68
2022-10-11T01:53:55.063Z,7.40
2022-10-11T01:56:30.686Z,8.13
2022-10-11T02:08:57.456Z,7.78
2022-10-11T02:11:28.981Z,8.38
2022-10-11T02:14:12.851Z,8.45
2022-10-11T02:16:44.428Z,8.57
2022-10-11T02:19:12.307Z,8.32
2022-10-11T02:21:40.526Z,9.05
2022-10-11T02:24:09.204Z,8.25
2022-10-11T02:26:36.245Z,8.73
2022-10-11T02:29:05.048Z,8.48
2022-10-11T02:31:33.544Z,9.07
2022-10-11T02:34:09.117Z,8.48
2022-10-11T02:46:21.509Z,8.02
2022-10-11T02:48:48.123Z,8.18
2022-10-11T02:51:14.863Z,8.77
2022-10-11T02:53:41.201Z,7.80
2022-10-11T02:56:08.001Z,7.88
2022-10-11T02:58:34.596Z,7.60
2022-10-11T03:01:00.969Z,7.85
2022-10-11T03:03:27.344Z,8.05
2022-10-11T03:05:58.046Z,8.00
2022-10-11T03:08:24.378Z,8.32
2022-10-11T03:10:50.871Z,8.38
2022-10-11T03:13:18.533Z,8.65
2022-10-11T03:15:49.327Z,8.20
2022-10-11T03:18:15.873Z,7.45
2022-10-11T03:20:42.220Z,6.88
2022-10-11T03:23:08.726Z,7.63
2022-10-11T03:25:35.086Z,6.97
2022-10-11T03:28:01.471Z,7.15
2022-10-11T03:30:27.910Z,5.75
2022-10-11T03:32:54.449Z,5.47
2022-10-11T03:35:20.908Z,4.65
2022-10-11T03:37:47.306Z,4.70
2022-10-11T03:40:13.847Z,4.72
2022-10-11T03:42:40.212Z,3.78
2022-10-11T03:45:08.228Z,3.95
2022-10-11T03:47:35.474Z,3.65
2022-10-11T03:50:02.155Z,3.90
2022-10-11T03:52:28.501Z,3.42
2022-10-11T03:54:54.873Z,3.58
2022-10-11T03:57:21.257Z,2.85
2022-10-11T03:59:48.233Z,2.72
2022-10-11T04:02:15.168Z,3.20
2022-10-11T04:04:41.473Z,2.25
2022-10-11T04:07:08.129Z,2.45
2022-10-11T04:09:34.579Z,2.42
2022-10-11T04:12:00.998Z,2.47
2022-10-11T04:14:27.411Z,2.75
2022-10-11T04:16:56.393Z,2.80
2022-10-11T04:19:24.732Z,2.70
2022-10-11T04:21:51.067Z,2.65
2022-10-11T04:24:17.388Z,3.00
2022-10-11T04:26:43.766Z,3.28
2022-10-11T04:29:10.073Z,3.35
2022-10-11T04:31:36.386Z,2.83
2022-10-11T04:34:02.845Z,2.85
2022-10-11T04:36:30.285Z,2.85
2022-10-11T04:38:56.846Z,3.38
2022-10-11T04:41:24.486Z,3.20
2022-10-11T04:43:50.806Z,2.80
2022-10-11T04:46:17.194Z,2.50
2022-10-11T04:48:43.485Z,2.50
2022-10-11T04:51:09.830Z,3.00
2022-10-11T04:53:36.125Z,2.70
2022-10-11T04:56:04.923Z,2.88
2022-10-11T04:58:33.161Z,2.72
2022-10-11T05:00:59.735Z,2.95
2022-10-11T05:03:26.632Z,2.97
2022-10-11T05:05:53.148Z,3.35
2022-10-11T05:08:19.700Z,3.00
2022-10-11T05:10:55.581Z,2.70
2022-10-11T05:13:22.122Z,2.88
2022-10-11T05:15:48.790Z,2.67
2022-10-11T05:18:15.507Z,3.00
2022-10-11T05:20:41.949Z,3.65
2022-10-11T05:23:08.517Z,3.03
2022-10-11T05:25:36.579Z,2.60
2022-10-11T05:28:03.000Z,2.47
2022-10-11T05:30:29.330Z,2.20
2022-10-11T05:32:55.738Z,3.58
2022-10-11T05:35:22.391Z,2.60
2022-10-11T05:37:48.791Z,2.60
2022-10-11T05:40:15.222Z,2.75
2022-10-11T05:42:41.584Z,2.53
2022-10-11T05:45:08.112Z,2.75
2022-10-11T05:47:34.521Z,3.22
2022-10-11T05:50:00.871Z,2.80
2022-10-11T05:52:27.336Z,2.78
2022-10-11T05:54:53.698Z,3.08
2022-10-11T05:57:20.104Z,2.58
2022-10-11T05:59:46.427Z,3.00
2022-10-11T06:02:13.120Z,3.35
2022-10-11T06:04:39.866Z,3.13
2022-10-11T06:07:06.230Z,3.20
2022-10-11T06:09:34.793Z,3.50
2022-10-11T06:12:01.495Z,3.00
2022-10-11T06:14:27.903Z,3.30
2022-10-11T06:16:54.209Z,3.30
2022-10-11T06:19:20.536Z,3.30
2022-10-11T06:21:47.044Z,3.22
2022-10-11T06:24:13.466Z,3.60
2022-10-11T06:26:40.114Z,3.97
2022-10-11T06:29:06.612Z,3.55
2022-10-11T06:31:33.166Z,4.00
2022-10-11T06:33:59.561Z,3.78
2022-10-11T06:36:25.975Z,3.63
2022-10-11T06:38:52.712Z,3.97
2022-10-11T06:41:20.371Z,3.95
2022-10-11T06:43:46.805Z,4.10
2022-10-11T06:46:13.157Z,4.18
2022-10-11T06:48:40.294Z,4.28
2022-10-11T06:51:06.616Z,4.40
2022-10-11T06:53:32.966Z,4.22
2022-10-11T06:56:05.992Z,4.75
2022-10-11T06:58:32.999Z,5.57
2022-10-11T07:00:59.989Z,4.63
2022-10-11T07:03:26.322Z,4.53
2022-10-11T07:05:52.713Z,4.55
2022-10-11T07:08:19.018Z,4.32
2022-10-11T07:10:45.372Z,4.60
2022-10-11T07:13:16.355Z,3.80
2022-10-11T07:15:43.394Z,4.00
2022-10-11T07:18:09.725Z,4.50
2022-10-11T07:20:36.131Z,4.15
2022-10-11T07:23:02.479Z,4.57
2022-10-11T07:25:28.775Z,3.70
2022-10-11T07:27:55.146Z,4.00
2022-10-11T07:30:21.473Z,3.72
2022-10-11T07:32:47.915Z,3.45
2022-10-11T07:35:14.412Z,3.70
2022-10-11T07:37:40.731Z,3.08
2022-10-11T07:40:10.738Z,3.83
2022-10-11T07:42:37.337Z,3.47
2022-10-11T07:45:03.830Z,2.83
2022-10-11T07:47:30.155Z,2.60
2022-10-11T07:49:56.781Z,2.70
2022-10-11T07:52:23.176Z,3.60
2022-10-11T07:54:49.821Z,3.28
2022-10-11T07:57:16.203Z,2.75
2022-10-11T07:59:47.840Z,2.92
2022-10-11T08:02:16.431Z,3.03
2022-10-11T08:04:42.769Z,3.15
2022-10-11T08:07:09.145Z,2.70
2022-10-11T08:09:35.447Z,2.95
2022-10-11T08:12:01.808Z,2.50
2022-10-11T08:14:28.197Z,2.38
2022-10-11T08:16:54.572Z,2.10
2022-10-11T08:19:20.990Z,2.53
2022-10-11T08:21:47.312Z,2.38
2022-10-11T08:24:14.043Z,2.80
2022-10-11T08:26:40.626Z,2.58
2022-10-11T08:29:07.187Z,2.42
2022-10-11T08:31:34.372Z,2.83
2022-10-11T08:34:00.680Z,2.65
2022-10-11T08:36:27.025Z,2.47
2022-10-11T08:38:53.353Z,2.92
2022-10-11T08:41:26.067Z,2.80
2022-10-11T08:44:02.182Z,3.25
2022-10-11T08:46:30.994Z,3.15
2022-10-11T08:48:57.658Z,2.28
2022-10-11T08:51:45.294Z,2.20
2022-10-11T08:54:15.221Z,2.00
2022-10-11T08:56:43.266Z,2.45
2022-10-11T08:59:12.336Z,2.45
2022-10-11T09:01:43.229Z,2.58
2022-10-11T09:04:14.271Z,2.30
2022-10-11T09:06:40.564Z,2.25
2022-10-11T09:09:13.262Z,2.20
2022-10-11T09:11:47.331Z,2.47
2022-10-11T09:14:32.230Z,2.53
2022-10-11T09:16:58.534Z,2.30
2022-10-11T09:19:43.808Z,2.08
2022-10-11T09:22:13.211Z,1.93
2022-10-11T09:24:45.719Z,2.45
2022-10-11T09:27:19.262Z,1.90
2022-10-11T09:29:48.623Z,1.90
2022-10-11T09:32:16.505Z,1.10
2022-10-11T09:34:43.185Z,2.00
2022-10-11T09:37:22.414Z,1.80
2022-10-11T09:40:18.923Z,2.05
2022-10-11T09:45:17.859Z,2.28
2022-10-11T09:47:44.418Z,1.95
2022-10-11T09:50:18.834Z,1.83
2022-10-11T09:52:52.735Z,1.92
2022-10-11T09:55:31.217Z,2.13
2022-10-11T09:57:57.893Z,1.70
2022-10-11T10:00:25.337Z,2.35
2022-10-11T10:02:52.949Z,1.83
2022-10-11T10:05:19.438Z,1.60
2022-10-11T10:08:05.215Z,1.50
2022-10-11T10:10:34.503Z,1.63
2022-10-11T10:13:02.114Z,1.80
2022-10-11T10:15:30.194Z,2.00
2022-10-11T10:17:56.915Z,1.70
2022-10-11T10:20:24.824Z,2.00
2022-10-11T10:22:51.783Z,1.98
2022-10-11T10:25:43.120Z,1.88
2022-10-11T10:28:23.929Z,2.00
2022-10-11T10:30:54.282Z,1.40
2022-10-11T10:33:21.764Z,1.50
2022-10-11T10:35:53.795Z,1.50
2022-10-11T10:38:32.672Z,1.70
2022-10-11T10:41:01.416Z,1.63
2022-10-11T10:43:29.908Z,1.40
2022-10-11T10:46:03.512Z,2.10
2022-10-11T10:49:18.845Z,1.85
2022-10-11T10:51:29.770Z,2.10
2022-10-11T10:54:16.308Z,1.67
2022-10-11T10:57:15.155Z,2.38
2022-10-11T11:00:00.089Z,1.67
2022-10-11T11:02:40.769Z,1.52
2022-10-11T11:05:07.939Z,1.73
2022-10-11T11:07:40.043Z,1.65
2022-10-11T11:10:10.222Z,1.83
2022-10-11T11:12:50.320Z,1.88
2022-10-11T11:15:23.370Z,1.88
2022-10-11T11:18:01.638Z,1.65
2022-10-11T11:20:42.095Z,1.70
2022-10-11T11:23:27.217Z,1.80
2022-10-11T11:25:56.638Z,1.50
2022-10-11T11:28:26.062Z,1.50
2022-10-11T11:30:52.474Z,1.38
2022-10-11T11:33:30.480Z,1.48
2022-10-11T11:35:58.283Z,1.80
2022-10-11T11:38:29.755Z,1.50
2022-10-11T11:41:02.404Z,2.10
2022-10-11T11:44:04.364Z,1.85
2022-10-11T11:46:33.775Z,1.90
2022-10-11T11:49:02.561Z,1.60
2022-10-11T11:51:38.488Z,1.70
2022-10-11T11:54:19.304Z,1.80
2022-10-11T11:57:04.657Z,1.48
2022-10-11T11:59:46.755Z,1.50
2022-10-11T12:02:31.967Z,1.45
2022-10-11T12:04:58.544Z,1.97
2022-10-11T12:07:26.341Z,2.15
2022-10-11T12:09:54.974Z,1.67
2022-10-11T12:12:30.623Z,1.98
2022-10-11T12:32:04.122Z,1.33
2022-10-11T12:34:45.618Z,1.27
2022-10-11T12:37:18.184Z,1.45
2022-10-11T12:39:50.747Z,1.88
2022-10-11T12:42:22.493Z,1.50
2022-10-11T12:45:07.797Z,1.52
2022-10-11T12:47:48.135Z,2.08
2022-10-11T12:50:26.647Z,1.75
2022-10-11T12:53:08.785Z,1.77
2022-10-11T12:55:39.306Z,1.52
2022-10-11T12:58:07.493Z,1.55
2022-10-11T13:00:43.531Z,1.92
2022-10-11T13:03:31.812Z,1.77
2022-10-11T13:06:01.716Z,1.63
2022-10-11T13:08:28.422Z,1.38
2022-10-11T13:10:57.292Z,1.20
2022-10-11T13:13:26.793Z,1.30
2022-10-11T13:15:54.127Z,1.20
2022-10-11T13:18:22.450Z,1.33
2022-10-11T13:20:48.992Z,1.65
2022-10-11T13:23:26.833Z,1.92
2022-10-11T13:25:53.898Z,1.90
2022-10-11T13:28:20.821Z,1.75
2022-10-11T13:30:48.640Z,1.52
2022-10-11T13:33:19.570Z,1.30
2022-10-11T13:35:46.304Z,1.58
2022-10-11T13:38:20.930Z,1.33
2022-10-11T13:40:50.849Z,1.63
2022-10-11T13:43:20.370Z,1.30
2022-10-11T13:45:46.832Z,1.50
2022-10-11T13:48:14.194Z,1.70
2022-10-11T13:50:44.113Z,1.77
2022-10-11T13:53:10.462Z,1.30
2022-10-11T13:55:36.877Z,1.58
2022-10-11T13:58:09.116Z,1.35
2022-10-11T14:00:39.322Z,1.73
2022-10-11T14:03:05.704Z,1.42
2022-10-11T14:05:39.868Z,1.30
2022-10-11T14:08:18.459Z,1.95
2022-10-11T14:10:50.667Z,1.60
2022-10-11T14:13:29.515Z,1.65
2022-10-11T14:16:00.114Z,1.25
2022-10-11T14:18:33.503Z,1.77
2022-10-11T14:21:17.420Z,1.75
2022-10-11T14:23:43.724Z,1.35
2022-10-11T14:26:16.394Z,1.33
2022-10-11T14:28:45.499Z,1.80
2022-10-11T14:31:11.950Z,1.25
2022-10-11T14:33:38.337Z,1.33
2022-10-11T14:36:05.258Z,1.88
2022-10-11T14:38:31.772Z,1.50
2022-10-11T14:40:58.068Z,1.60
2022-10-11T14:43:24.732Z,1.27
2022-10-11T14:45:51.046Z,1.25
2022-10-11T14:48:26.686Z,1.40
2022-10-11T14:51:03.756Z,1.52
2022-10-11T14:53:30.123Z,1.10
2022-10-11T14:55:57.312Z,1.45
2022-10-11T14:58:23.681Z,1.50
2022-10-11T15:00:50.010Z,1.20
2022-10-11T15:03:16.309Z,1.25
2022-10-11T15:05:42.897Z,1.42
2022-10-11T15:08:09.284Z,1.50
2022-10-11T15:10:35.839Z,1.60
2022-10-11T15:13:02.967Z,1.52
2022-10-11T15:15:30.667Z,1.17
2022-10-11T15:17:58.238Z,1.55
2022-10-11T15:20:24.789Z,1.33
2022-10-11T15:22:51.273Z,1.35
2022-10-11T15:25:17.907Z,1.67
2022-10-11T15:27:44.630Z,1.20
2022-10-11T15:30:22.971Z,1.05
2022-10-11T15:32:49.793Z,1.17
2022-10-11T15:35:16.998Z,1.38
2022-10-11T15:37:43.711Z,2.25
2022-10-11T15:40:17.745Z,1.75
2022-10-11T15:42:44.214Z,1.38
2022-10-11T15:45:11.008Z,1.20
2022-10-11T15:47:37.729Z,1.38
2022-10-11T15:50:10.955Z,1.40
2022-10-11T15:52:37.341Z,1.70
2022-10-11T15:55:03.803Z,1.67
2022-10-11T15:57:30.170Z,2.13
2022-10-11T15:59:56.510Z,1.92
2022-10-11T16:02:22.985Z,1.65
2022-10-11T16:04:49.264Z,1.60
2022-10-11T16:07:15.638Z,1.60
2022-10-11T16:09:41.981Z,1.55
2022-10-11T16:12:08.266Z,1.17
2022-10-11T16:14:34.631Z,1.52
2022-10-11T16:17:03.275Z,1.40
2022-10-11T16:19:29.578Z,2.00
2022-10-11T16:21:55.926Z,1.60
2022-10-11T16:24:22.263Z,2.10
2022-10-11T16:26:48.566Z,1.95
2022-10-11T16:29:14.961Z,2.08
2022-10-11T16:31:41.420Z,2.75
2022-10-11T16:34:07.790Z,2.65
2022-10-11T16:36:40.644Z,3.47
2022-10-11T16:39:09.023Z,3.58
2022-10-11T16:41:35.429Z,4.53
2022-10-11T16:44:02.364Z,4.50
2022-10-11T16:46:28.681Z,4.82
2022-10-11T16:48:56.056Z,4.57
2022-10-11T16:51:24.080Z,4.32
2022-10-11T16:53:51.376Z,3.20
2022-10-11T16:56:18.225Z,2.95
2022-10-11T16:58:44.571Z,3.03
2022-10-11T17:01:11.268Z,3.40
2022-10-11T17:03:37.943Z,3.13
2022-10-11T17:06:05.435Z,3.30
2022-10-11T17:08:32.007Z,3.78
2022-10-11T17:10:58.394Z,4.10
2022-10-11T17:13:24.908Z,4.65
2022-10-11T17:15:51.326Z,4.75
2022-10-11T17:18:17.710Z,5.68
2022-10-11T17:20:44.240Z,6.10
2022-10-11T17:23:10.773Z,5.78
2022-10-11T17:25:43.963Z,4.97
2022-10-11T17:28:11.127Z,5.65
2022-10-11T17:30:38.087Z,5.63
2022-10-11T17:33:04.466Z,6.22
2022-10-11T17:35:31.501Z,6.07
2022-10-11T17:38:02.310Z,5.63
2022-10-11T17:40:31.429Z,6.65
2022-10-11T17:42:57.811Z,5.57
2022-10-11T17:45:24.140Z,6.03
2022-10-11T17:47:50.606Z,6.32
2022-10-11T17:50:17.050Z,5.88
2022-10-11T17:52:43.439Z,6.65
2022-10-11T17:55:09.832Z,7.15
2022-10-11T17:57:36.229Z,7.07
2022-10-11T18:00:03.847Z,6.85
2022-10-11T18:02:30.225Z,7.28
2022-10-11T18:04:56.535Z,7.25
2022-10-11T18:07:24.080Z,7.90
2022-10-11T18:09:50.513Z,8.32
2022-10-11T18:12:16.923Z,8.38
2022-10-11T18:14:43.223Z,7.07
2022-10-11T18:17:10.126Z,6.93
2022-10-11T18:19:36.478Z,5.70
2022-10-11T18:22:06.778Z,7.07
2022-10-11T18:24:33.712Z,7.22
2022-10-11T18:27:00.034Z,7.30
2022-10-11T18:29:26.447Z,8.02
2022-10-11T18:31:52.949Z,7.28
2022-10-11T18:34:19.255Z,8.30
2022-10-11T18:36:45.681Z,7.95
2022-10-11T18:39:13.984Z,8.05
2022-10-11T18:41:42.093Z,8.55
2022-10-11T18:44:09.031Z,8.45
2022-10-11T18:46:35.803Z,8.90
2022-10-11T18:49:02.287Z,9.45
2022-10-11T18:51:32.783Z,8.80
2022-10-11T18:53:59.689Z,8.68
2022-10-11T18:56:26.843Z,9.05
2022-10-11T18:58:53.992Z,8.52
2022-10-11T19:01:22.114Z,9.82
2022-10-11T19:03:49.767Z,10.65
2022-10-11T19:06:17.704Z,10.15
2022-10-11T19:08:44.938Z,9.10
2022-10-11T19:11:12.870Z,8.57
2022-10-11T19:13:39.648Z,8.30
2022-10-11T19:16:07.404Z,7.90
2022-10-11T19:18:34.116Z,6.05
2022-10-11T19:21:01.231Z,6.65
2022-10-11T19:23:27.644Z,6.15
2022-10-11T19:25:56.830Z,6.22
2022-10-11T19:28:23.211Z,8.00
2022-10-11T19:30:49.610Z,7.85
2022-10-11T19:33:16.056Z,7.53
2022-10-11T19:35:52.785Z,7.75
2022-10-11T19:38:19.078Z,7.85
2022-10-11T19:40:45.423Z,7.53
2022-10-11T19:43:11.817Z,7.80
2022-10-11T19:45:38.121Z,7.50
2022-10-11T19:48:04.521Z,6.65
2022-10-11T19:50:30.946Z,6.90
2022-10-11T19:52:57.362Z,7.47
2022-10-11T19:55:23.901Z,7.00
2022-10-11T19:57:50.436Z,6.85
2022-10-11T20:00:16.863Z,6.57
2022-10-11T20:02:43.286Z,6.05
2022-10-11T20:05:09.700Z,6.03
2022-10-11T20:07:36.028Z,6.47
2022-10-11T20:10:02.315Z,6.32
2022-10-11T20:12:29.518Z,6.57
2022-10-11T20:14:56.051Z,6.80
2022-10-11T20:17:42.331Z,7.38
2022-10-11T20:20:09.191Z,7.55
2022-10-11T20:22:35.705Z,7.65
2022-10-11T20:25:02.249Z,7.35
2022-10-11T20:27:31.566Z,7.60
2022-10-11T20:29:58.039Z,8.25
2022-10-11T20:32:24.387Z,7.07
2022-10-11T20:34:50.758Z,6.82
2022-10-11T20:37:17.053Z,7.03
2022-10-11T20:39:43.456Z,5.38
2022-10-11T20:42:10.169Z,5.88
2022-10-11T20:44:36.511Z,6.18
2022-10-11T20:47:04.179Z,7.25
2022-10-11T20:49:30.825Z,7.30
2022-10-11T20:51:57.386Z,8.55
2022-10-11T20:54:23.844Z,9.50
2022-10-11T20:56:50.222Z,9.73
2022-10-11T20:59:16.552Z,9.25
2022-10-11T21:01:42.968Z,9.20
2022-10-11T21:04:14.208Z,8.65
2022-10-11T21:06:40.592Z,8.38
2022-10-11T21:09:07.831Z,7.85
2022-10-11T21:11:35.561Z,10.30
2022-10-11T21:14:03.125Z,10.93
2022-10-11T21:16:29.781Z,11.20
2022-10-11T21:18:57.283Z,10.98
2022-10-11T21:21:24.037Z,10.68
2022-10-11T21:23:53.225Z,10.98
2022-10-11T21:26:19.725Z,10.50
2022-10-11T21:28:46.817Z,11.05
2022-10-11T21:31:14.327Z,12.20
2022-10-11T21:33:41.271Z,11.07
2022-10-11T21:36:08.870Z,10.48
2022-10-11T21:38:35.194Z,10.75
2022-10-11T21:41:11.880Z,12.10
2022-10-11T21:43:38.625Z,11.77
2022-10-11T21:46:12.371Z,11.15
2022-10-11T21:48:39.097Z,10.43
2022-10-11T21:51:05.639Z,9.65
2022-10-11T21:53:32.091Z,11.15
2022-10-11T21:55:59.814Z,10.07
2022-10-11T21:58:26.197Z,9.95
2022-10-11T22:00:53.159Z,9.82
2022-10-11T22:03:19.661Z,9.43
2022-10-11T22:05:46.624Z,10.32
2022-10-11T22:08:13.756Z,9.25
2022-10-11T22:10:43.453Z,9.38
2022-10-11T22:13:09.833Z,8.82
2022-10-11T22:15:36.306Z,9.05
2022-10-11T22:18:03.131Z,8.80
2022-10-11T22:20:29.585Z,9.70
2022-10-11T22:22:55.905Z,8.75
2022-10-11T22:25:22.272Z,8.25
2022-10-11T22:27:48.584Z,8.77
2022-10-11T22:30:14.898Z,8.35
2022-10-11T22:32:41.466Z,8.40
2022-10-11T22:35:07.958Z,8.88
2022-10-11T22:37:34.563Z,8.50
2022-10-11T22:40:01.231Z,8.23
2022-10-11T22:42:29.047Z,7.68
2022-10-11T22:44:55.404Z,7.63
2022-10-11T22:47:21.866Z,7.63
2022-10-11T22:49:48.203Z,7.60
2022-10-11T22:52:14.682Z,6.75
2022-10-11T22:54:41.115Z,6.85
2022-10-11T22:57:07.452Z,7.07
2022-10-11T22:59:33.730Z,7.05
2022-10-11T23:02:00.071Z,6.80
2022-10-11T23:04:26.373Z,6.95
2022-10-11T23:06:52.733Z,6.93
2022-10-11T23:09:19.038Z,7.18
2022-10-11T23:11:45.392Z,7.00
2022-10-11T23:14:11.804Z,7.22
2022-10-11T23:16:38.198Z,7.10
2022-10-11T23:19:04.586Z,6.43
2022-10-11T23:21:30.983Z,6.75
2022-10-11T23:23:57.306Z,6.72
2022-10-11T23:26:23.605Z,6.85
2022-10-11T23:28:53.315Z,6.43
2022-10-11T23:31:19.766Z,6.30
2022-10-11T23:33:46.842Z,5.80
2022-10-11T23:36:23.439Z,6.75
2022-10-11T23:38:53.760Z,6.50
2022-10-11T23:41:20.663Z,6.40
2022-10-11T23:43:47.187Z,6.60
2022-10-11T23:46:13.566Z,6.15
2022-10-11T23:48:39.898Z,6.40
2022-10-11T23:51:06.430Z,6.07
2022-10-11T23:53:32.949Z,6.82
2022-10-11T23:55:59.264Z,6.90
2022-10-11T23:58:25.618Z,6.72
